createdAt,value
2022-11-13T00:02:55.608Z,100151.69
2022-11-13T00:08:19.388Z,100149.34
2022-11-13T00:13:49.012Z,100154.75
2022-11-13T00:19:12.504Z,100147.44
2022-11-13T00:24:37.166Z,100136.03
2022-11-13T00:30:04.022Z,100131.00
2022-11-13T00:35:29.526Z,100135.53
2022-11-13T00:40:54.494Z,100129.09
2022-11-13T00:46:23.650Z,100123.41
2022-11-13T00:51:47.367Z,100138.31
2022-11-13T00:57:10.857Z,100122.00
2022-11-13T01:02:37.043Z,100119.72
2022-11-13T01:08:00.316Z,100120.84
2022-11-13T01:13:26.509Z,100117.31
2022-11-13T01:18:53.498Z,100108.72
2022-11-13T01:24:17.310Z,100105.50
2022-11-13T01:29:43.551Z,100107.91
2022-11-13T01:35:12.659Z,100093.59
2022-11-13T01:40:36.441Z,100085.75
2022-11-13T01:46:21.949Z,100081.81
2022-11-13T01:51:53.667Z,100074.50
2022-11-13T01:57:18.928Z,100079.47
2022-11-13T02:02:44.533Z,100071.38
2022-11-13T02:08:13.294Z,100062.91
2022-11-13T02:13:38.021Z,100054.16
2022-11-13T02:19:02.325Z,100064.22
2022-11-13T02:24:35.837Z,100054.78
2022-11-13T02:30:01.606Z,100055.69
2022-11-13T02:35:30.584Z,100057.72
2022-11-13T02:40:56.619Z,100061.59
2022-11-13T02:46:20.487Z,100052.81
2022-11-13T02:51:46.331Z,100046.00
2022-11-13T02:57:12.559Z,100042.06
2022-11-13T03:02:36.293Z,100027.59
2022-11-13T03:07:59.742Z,100035.81
2022-11-13T03:13:26.536Z,100026.22
2022-11-13T03:18:50.195Z,100020.25
2022-11-13T03:24:14.271Z,100012.72
2022-11-13T03:29:41.046Z,100018.94
2022-11-13T03:35:04.304Z,100014.91
2022-11-13T03:40:28.155Z,100011.63
2022-11-13T03:45:54.823Z,100021.03
2022-11-13T03:51:20.198Z,100008.44
2022-11-13T03:56:44.141Z,100019.44
2022-11-13T04:02:10.291Z,100019.72
2022-11-13T04:07:34.089Z,100011.28
2022-11-13T04:12:57.766Z,100010.81
2022-11-13T04:18:23.830Z,100009.38
2022-11-13T04:23:47.510Z,99999.00
2022-11-13T04:29:11.527Z,99993.28
2022-11-13T04:34:46.166Z,99986.78
2022-11-13T04:40:11.912Z,99980.75
2022-11-13T04:45:35.372Z,99982.19
2022-11-13T04:51:02.652Z,99980.75
2022-11-13T04:56:26.738Z,99975.09
2022-11-13T05:01:50.722Z,99966.06
2022-11-13T05:07:17.195Z,99958.25
2022-11-13T05:12:41.008Z,99952.03
2022-11-13T05:18:06.964Z,99948.47
2022-11-13T05:23:34.203Z,99947.41
2022-11-13T05:29:00.172Z,99939.09
2022-11-13T05:34:24.879Z,99941.94
2022-11-13T05:39:51.498Z,99947.91
2022-11-13T05:45:15.510Z,99940.72
2022-11-13T05:50:38.936Z,99936.34
2022-11-13T05:56:07.467Z,99941.59
2022-11-13T06:01:33.319Z,99941.84
2022-11-13T06:06:56.917Z,99935.19
2022-11-13T06:12:22.929Z,99950.19
2022-11-13T06:17:49.159Z,99945.28
2022-11-13T06:23:13.201Z,99937.91
2022-11-13T06:28:39.934Z,99940.22
2022-11-13T06:34:07.772Z,99940.38
2022-11-13T06:39:33.881Z,99939.38
2022-11-13T06:45:00.195Z,99942.19
2022-11-13T06:50:23.729Z,99946.78
2022-11-13T06:55:47.830Z,99942.16
2022-11-13T07:01:16.394Z,99933.63
2022-11-13T07:06:49.519Z,99920.31
2022-11-13T07:12:13.551Z,99920.31
2022-11-13T07:17:41.363Z,99925.34
2022-11-13T07:23:06.553Z,99929.72
2022-11-13T07:28:30.701Z,99929.22
2022-11-13T07:33:57.235Z,99923.88
2022-11-13T07:39:20.858Z,99924.97
2022-11-13T07:44:59.913Z,99928.44
2022-11-13T07:50:26.366Z,99930.16
2022-11-13T07:55:50.215Z,99922.66
2022-11-13T08:01:16.893Z,99919.69
2022-11-13T08:06:43.755Z,99910.28
2022-11-13T08:12:07.766Z,99911.19
2022-11-13T08:17:31.215Z,99908.34
2022-11-13T08:23:00.098Z,99900.13
2022-11-13T08:28:23.664Z,99896.19
2022-11-13T08:33:47.093Z,99890.03
2022-11-13T08:39:15.674Z,99891.34
2022-11-13T08:44:39.270Z,99898.22
2022-11-13T08:50:02.946Z,99903.13
2022-11-13T08:55:30.041Z,99909.25
2022-11-13T09:00:53.744Z,99906.41
2022-11-13T09:06:18.120Z,99899.72
2022-11-13T09:11:44.571Z,99899.09
2022-11-13T09:17:08.224Z,99889.84
2022-11-13T09:22:31.650Z,99895.72
2022-11-13T09:28:00.136Z,99902.47
2022-11-13T09:33:23.901Z,99899.44
2022-11-13T09:38:50.230Z,99906.81
2022-11-13T09:44:33.462Z,99912.44
2022-11-13T09:50:03.872Z,99912.56
2022-11-13T09:55:31.727Z,99910.59
2022-11-13T10:00:58.727Z,99903.25
2022-11-13T10:06:30.154Z,99904.75
2022-11-13T10:11:58.240Z,99908.72
2022-11-13T10:17:28.152Z,99884.31
2022-11-13T10:22:54.209Z,99875.81
2022-11-13T10:34:13.947Z,99894.22
2022-11-13T10:39:44.911Z,99877.34
2022-11-13T10:45:18.841Z,99871.13
2022-11-13T10:50:45.729Z,99874.03
2022-11-13T10:56:17.194Z,99869.38
2022-11-13T11:01:41.493Z,99849.25
2022-11-13T11:07:20.666Z,99849.25
2022-11-13T11:12:45.048Z,99853.25
2022-11-13T11:18:20.470Z,99852.19
2022-11-13T11:23:55.962Z,99847.94
2022-11-13T11:29:24.781Z,99834.09
2022-11-13T11:34:58.838Z,99841.03
2022-11-13T11:40:33.797Z,99824.25
2022-11-13T11:45:57.685Z,99833.84
2022-11-13T11:51:28.199Z,99825.53
2022-11-13T11:56:58.247Z,99832.94
2022-11-13T12:02:50.205Z,99817.34
2022-11-13T12:08:22.857Z,99806.78
2022-11-13T12:13:56.203Z,99799.59
2022-11-13T12:19:29.743Z,99784.97
2022-11-13T12:25:05.757Z,99784.41
2022-11-13T12:30:41.894Z,99775.44
2022-11-13T12:36:07.610Z,99767.22
2022-11-13T12:41:35.994Z,99764.19
2022-11-13T12:47:04.776Z,99766.81
2022-11-13T12:52:30.014Z,99756.56
2022-11-13T12:57:53.696Z,99763.22
2022-11-13T13:03:48.005Z,99761.09
2022-11-13T13:09:27.536Z,99749.69
2022-11-13T13:15:15.371Z,99749.88
2022-11-13T13:20:44.739Z,99727.03
2022-11-13T13:26:19.107Z,99740.34
2022-11-13T13:31:53.412Z,99728.72
2022-11-13T13:37:28.717Z,99730.00
2022-11-13T13:43:06.572Z,99726.03
2022-11-13T13:48:33.234Z,99721.28
2022-11-13T13:54:04.287Z,99707.47
2022-11-13T13:59:33.304Z,99715.97
2022-11-13T14:05:00.143Z,99687.28
2022-11-13T14:10:30.892Z,99701.09
2022-11-13T14:16:05.004Z,99703.41
2022-11-13T14:21:28.538Z,99694.13
2022-11-13T14:26:59.608Z,99700.22
2022-11-13T14:32:26.755Z,99687.66
2022-11-13T14:37:51.389Z,99685.44
2022-11-13T14:43:24.712Z,99668.22
2022-11-13T14:49:02.107Z,99664.72
2022-11-13T14:55:00.204Z,99667.03
2022-11-13T15:00:29.841Z,99657.69
2022-11-13T15:05:53.798Z,99653.69
2022-11-13T15:11:18.825Z,99658.19
2022-11-13T15:16:46.518Z,99654.34
2022-11-13T15:22:26.438Z,99654.56
2022-11-13T15:27:51.407Z,99655.81
2022-11-13T15:33:19.862Z,99665.81
2022-11-13T15:38:43.344Z,99656.84
2022-11-13T15:44:13.484Z,99657.13
2022-11-13T15:49:46.931Z,99662.75
2022-11-13T15:55:27.364Z,99648.78
2022-11-13T16:00:51.220Z,99647.75
2022-11-13T16:06:20.907Z,99634.50
2022-11-13T16:11:49.267Z,99636.88
2022-11-13T16:17:20.168Z,99626.44
2022-11-13T16:22:47.133Z,99627.75
2022-11-13T16:28:18.193Z,99621.91
2022-11-13T16:33:41.752Z,99629.84
2022-11-13T16:39:08.543Z,99618.97
2022-11-13T16:44:32.206Z,99619.72
2022-11-13T16:49:57.166Z,99608.66
2022-11-13T16:55:25.500Z,99616.53
2022-11-13T17:00:53.056Z,99619.72
2022-11-13T17:06:24.530Z,99608.59
2022-11-13T17:11:50.386Z,99602.47
2022-11-13T17:17:15.826Z,99600.84
2022-11-13T17:22:40.571Z,99599.00
2022-11-13T17:28:07.193Z,99590.81
2022-11-13T17:33:31.422Z,99586.38
2022-11-13T17:38:56.493Z,99577.44
2022-11-13T17:44:22.913Z,99578.09
2022-11-13T17:49:46.806Z,99586.03
2022-11-13T17:55:13.232Z,99568.13
2022-11-13T18:00:41.407Z,99580.00
2022-11-13T18:06:07.960Z,99569.69
2022-11-13T18:11:34.241Z,99578.13
2022-11-13T18:17:01.019Z,99577.06
2022-11-13T18:22:25.588Z,99566.53
2022-11-13T18:27:51.868Z,99570.81
2022-11-13T18:33:20.204Z,99564.50
2022-11-13T18:38:45.824Z,99559.22
2022-11-13T18:44:23.039Z,99549.75
2022-11-13T18:49:47.643Z,99557.13
2022-11-13T18:55:12.759Z,99557.13
2022-11-13T19:00:43.425Z,99546.81
2022-11-13T19:06:13.717Z,99547.38
2022-11-13T19:11:38.020Z,99542.56
2022-11-13T19:17:07.893Z,99537.31
2022-11-13T19:22:32.179Z,99538.88
2022-11-13T19:27:59.489Z,99535.44
2022-11-13T19:33:28.682Z,99523.50
2022-11-13T19:38:52.889Z,99532.00
2022-11-13T19:44:19.657Z,99520.63
2022-11-13T19:49:46.892Z,99530.38
2022-11-13T19:55:12.220Z,99526.97
2022-11-13T20:00:37.013Z,99532.22
2022-11-13T20:06:03.726Z,99522.97
2022-11-13T20:11:27.682Z,99522.47
2022-11-13T20:16:53.402Z,99526.44
2022-11-13T20:22:20.539Z,99519.28
2022-11-13T20:27:47.343Z,99505.00
2022-11-13T20:33:12.198Z,99507.38
2022-11-13T20:38:39.003Z,99504.75
2022-11-13T20:44:04.389Z,99498.91
2022-11-13T20:49:28.449Z,99494.94
2022-11-13T20:54:54.879Z,99482.22
2022-11-13T21:00:19.931Z,99476.91
2022-11-13T21:05:43.730Z,99480.34
2022-11-13T21:11:11.045Z,99472.94
2022-11-13T21:16:35.242Z,99467.38
2022-11-13T21:21:58.821Z,99460.72
2022-11-13T21:27:24.768Z,99452.56
2022-11-13T21:32:49.025Z,99451.25
2022-11-13T21:38:12.878Z,99448.06
2022-11-13T21:43:39.249Z,99445.41
2022-11-13T21:49:05.126Z,99431.66
2022-11-13T21:54:28.838Z,99439.88
2022-11-13T21:59:55.077Z,99441.97
2022-11-13T22:05:20.143Z,99445.41
2022-11-13T22:10:44.112Z,99449.63
2022-11-13T22:16:11.901Z,99443.03
2022-11-13T22:21:36.550Z,99452.84
2022-11-13T22:26:59.965Z,99451.25
2022-11-13T22:32:26.243Z,99448.06
2022-11-13T22:37:49.802Z,99448.34
2022-11-13T22:43:13.346Z,99434.31
2022-11-13T22:48:41.172Z,99428.47
2022-11-13T22:54:06.445Z,99432.16
2022-11-13T22:59:29.949Z,99424.78
2022-11-13T23:04:56.370Z,99423.97
2022-11-13T23:10:25.445Z,99432.16
2022-11-13T23:15:49.802Z,99424.22
2022-11-13T23:21:17.596Z,99418.94
2022-11-13T23:26:41.136Z,99417.34
2022-11-13T23:32:04.954Z,99410.47
2022-11-13T23:37:31.174Z,99410.72
2022-11-13T23:42:55.777Z,99412.03
2022-11-13T23:48:19.497Z,99399.34
2022-11-13T23:53:45.470Z,99412.59
2022-11-13T23:59:09.176Z,99400.94
